Time;durP1;ratioP1;P1;durP2;ratioP2;P2;SDS_P1;SDS_P2;PMS_P1;PMS_P2;Temp;Humidity;BMP_temperature;BMP_pressure;BME280_temperature;BME280_humidity;BME280_pressure;Samples;Min_cycle;Max_cycle;Signal;HPM_P1;HPM_P2
2021/11/16 00:02:00;;;;;;;;;;;;;;;30.10;23.15;97773.16;5015914;28;1472;-48
2021/11/16 00:04:25;;;;;;;;;;;;;;;30.36;22.92;97765.38;5013448;28;1440;-47
2021/11/16 00:06:52;;;;;;;;;;;;;;;29.84;23.60;97767.59;5016327;28;1192;-48
2021/11/16 00:09:17;;;;;;;;;;;;;;;30.11;23.14;97765.03;5016037;28;1496;-48
2021/11/16 00:11:43;;;;;;;;;;;;;;;30.04;23.10;97755.94;5018408;28;1295;-46
2021/11/16 00:14:09;;;;;;;;;;;;;;;29.91;23.61;97752.75;5017347;28;1156;-48
2021/11/16 00:16:36;;;;;;;;;;;;;;;30.22;23.11;97751.56;5016447;28;1646;-49
2021/11/16 00:19:03;;;;;;;;;;;;;;;30.15;22.89;97745.13;5019435;28;1973;-48
2021/11/16 00:21:28;;;;;;;;;;;;;;;30.13;23.28;97752.44;5012620;28;1666;-47
2021/11/16 00:23:57;;;;;;;;;;;;;;;30.19;23.14;97740.38;5017970;28;1579;-48
2021/11/16 00:26:22;;;;;;;;;;;;;;;30.35;22.76;97740.59;5018219;28;1012;-47
2021/11/16 00:28:47;;;;;;;;;;;;;;;29.90;23.09;97748.41;5015519;28;1468;-47
2021/11/16 00:31:14;;;;;;;;;;;;;;;29.93;23.27;97751.59;5017933;28;1559;-48
2021/11/16 00:33:39;;;;;;;;;;;;;;;30.05;23.17;97752.28;5017090;28;1176;-47
2021/11/16 00:36:04;;;;;;;;;;;;;;;29.93;23.29;97750.75;5015486;28;1468;-48
2021/11/16 00:38:30;;;;;;;;;;;;;;;29.97;23.16;97749.50;5013788;28;1965;-47
2021/11/16 00:40:55;;;;;;;;;;;;;;;30.12;22.97;97748.09;5016832;28;1326;-47
2021/11/16 00:43:20;;;;;;;;;;;;;;;29.98;23.02;97744.03;5015919;28;1555;-49
2021/11/16 00:45:46;;;;;;;;;;;;;;;30.30;22.72;97750.81;5014492;28;1468;-47
2021/11/16 00:48:11;;;;;;;;;;;;;;;30.18;22.97;97742.19;5014184;28;1448;-48
2021/11/16 00:50:37;;;;;;;;;;;;;;;30.00;23.05;97742.06;5016705;28;1412;-47
2021/11/16 00:53:03;;;;;;;;;;;;;;;30.24;22.83;97744.25;5015001;28;1300;-48
2021/11/16 00:55:28;;;;;;;;;;;;;;;29.82;23.42;97749.13;5017298;28;1052;-48
2021/11/16 00:57:53;;;;;;;;;;;;;;;30.13;22.78;97741.78;5013839;28;1910;-48
2021/11/16 01:00:19;;;;;;;;;;;;;;;29.91;23.04;97747.41;5017477;28;1089;-47
2021/11/16 01:02:45;;;;;;;;;;;;;;;30.02;23.07;97747.28;5016725;28;1143;-48
2021/11/16 01:05:12;;;;;;;;;;;;;;;30.25;22.64;97737.09;5008012;28;1444;-48
2021/11/16 01:07:37;;;;;;;;;;;;;;;30.01;22.73;97737.59;5015919;28;1548;-48
2021/11/16 01:10:03;;;;;;;;;;;;;;;30.14;23.00;97743.47;5015697;28;1203;-48
2021/11/16 01:12:28;;;;;;;;;;;;;;;29.93;23.00;97742.78;5017087;28;1194;-47
2021/11/16 01:14:54;;;;;;;;;;;;;;;30.25;22.74;97734.44;5017101;28;1412;-47
2021/11/16 01:17:19;;;;;;;;;;;;;;;30.08;22.91;97738.72;5011667;28;1906;-48
2021/11/16 01:19:46;;;;;;;;;;;;;;;30.23;22.74;97739.09;5016683;28;1650;-49
2021/11/16 01:22:11;;;;;;;;;;;;;;;30.01;22.78;97742.91;5018791;28;1246;-48
2021/11/16 01:24:36;;;;;;;;;;;;;;;30.28;22.36;97736.84;5015384;28;1460;-47
2021/11/16 01:27:02;;;;;;;;;;;;;;;30.11;22.59;97733.13;5016100;28;1452;-48
2021/11/16 01:29:27;;;;;;;;;;;;;;;30.30;22.46;97740.19;4954940;28;1237;-46
2021/11/16 01:31:55;;;;;;;;;;;;;;;30.03;22.85;97735.63;5015937;28;1025;-46
2021/11/16 01:34:27;;;;;;;;;;;;;;;29.96;22.72;97731.88;5013937;28;1411;-46
2021/11/16 01:36:52;;;;;;;;;;;;;;;30.36;22.46;97731.63;5016577;28;996;-45
2021/11/16 01:39:18;;;;;;;;;;;;;;;29.98;22.71;97743.19;5013088;28;1914;-46
2021/11/16 01:41:43;;;;;;;;;;;;;;;30.22;22.56;97735.59;5016469;28;1045;-47
2021/11/16 01:44:08;;;;;;;;;;;;;;;29.90;22.63;97735.94;5014543;28;1653;-47
2021/11/16 01:46:33;;;;;;;;;;;;;;;29.97;22.70;97737.06;5017093;28;1158;-46
2021/11/16 01:48:59;;;;;;;;;;;;;;;30.17;22.33;97740.50;5012397;28;1441;-47
2021/11/16 01:51:25;;;;;;;;;;;;;;;30.16;22.42;97738.81;5015031;28;1623;-46
2021/11/16 01:53:51;;;;;;;;;;;;;;;29.88;22.96;97747.72;5016780;28;1274;-46
2021/11/16 01:56:16;;;;;;;;;;;;;;;29.88;22.73;97745.91;5013415;28;1527;-46
2021/11/16 01:58:42;;;;;;;;;;;;;;;30.24;22.30;97754.91;5015389;28;1891;-46
2021/11/16 02:01:07;;;;;;;;;;;;;;;30.07;22.51;97746.81;5012342;28;1471;-47
2021/11/16 02:03:32;;;;;;;;;;;;;;;29.85;22.68;97746.16;5012632;28;1495;-48
2021/11/16 02:06:13;;;;;;;;;;;;;;;30.21;22.18;97738.41;5016025;28;1478;-48
2021/11/16 02:08:38;;;;;;;;;;;;;;;29.66;22.94;97741.75;5019132;28;1316;-48
2021/11/16 02:11:03;;;;;;;;;;;;;;;29.95;22.76;97739.03;5016942;28;1456;-47
2021/11/16 02:13:28;;;;;;;;;;;;;;;30.04;22.59;97742.63;5015353;28;1483;-46
2021/11/16 02:15:53;;;;;;;;;;;;;;;29.96;22.71;97729.22;5020481;28;1148;-47
2021/11/16 02:18:19;;;;;;;;;;;;;;;30.13;22.27;97730.31;5019336;28;1922;-47
2021/11/16 02:20:44;;;;;;;;;;;;;;;29.81;22.63;97733.31;5018246;28;1396;-45
2021/11/16 02:23:09;;;;;;;;;;;;;;;29.91;22.60;97736.78;5017636;28;1497;-47
2021/11/16 02:25:34;;;;;;;;;;;;;;;29.83;22.86;97736.66;5015418;28;1531;-47
2021/11/16 02:28:00;;;;;;;;;;;;;;;29.79;22.67;97728.16;5019488;28;1362;-47
2021/11/16 02:30:25;;;;;;;;;;;;;;;29.75;23.08;97724.94;5015133;28;1535;-48
2021/11/16 02:32:53;;;;;;;;;;;;;;;29.75;22.59;97729.41;5020551;28;1121;-47
2021/11/16 02:35:19;;;;;;;;;;;;;;;29.67;22.63;97719.50;5013513;28;1353;-46
2021/11/16 02:37:44;;;;;;;;;;;;;;;29.95;22.56;97715.09;5020929;28;1966;-47
2021/11/16 02:40:09;;;;;;;;;;;;;;;29.79;22.51;97706.88;5033777;28;1338;-46
2021/11/16 02:42:35;;;;;;;;;;;;;;;29.92;22.66;97702.06;5018162;28;1200;-46
2021/11/16 02:45:00;;;;;;;;;;;;;;;29.80;22.62;97703.25;5016614;28;1967;-48
2021/11/16 02:47:25;;;;;;;;;;;;;;;30.04;22.49;97708.06;5018993;28;1347;-46
2021/11/16 02:49:52;;;;;;;;;;;;;;;29.86;22.50;97715.09;5015726;28;1413;-47
2021/11/16 02:52:17;;;;;;;;;;;;;;;29.92;22.40;97711.88;5013918;28;1556;-46
2021/11/16 02:54:42;;;;;;;;;;;;;;;29.70;22.68;97715.69;5019348;28;1195;-46
2021/11/16 02:57:08;;;;;;;;;;;;;;;29.87;22.31;97706.16;5019039;28;1961;-46
2021/11/16 02:59:34;;;;;;;;;;;;;;;29.62;22.78;97718.22;5019757;28;1495;-47
2021/11/16 03:01:59;;;;;;;;;;;;;;;29.65;22.91;97723.28;5013846;28;1420;-47
2021/11/16 03:04:24;;;;;;;;;;;;;;;29.58;22.63;97711.53;5014398;28;1487;-47
2021/11/16 03:06:49;;;;;;;;;;;;;;;29.98;22.46;97709.47;5017748;28;1515;-47
2021/11/16 03:09:14;;;;;;;;;;;;;;;29.59;22.66;97705.25;5019874;28;1284;-47
2021/11/16 03:11:40;;;;;;;;;;;;;;;29.65;22.85;97708.16;5014804;28;1483;-47
2021/11/16 03:14:05;;;;;;;;;;;;;;;29.55;22.88;97707.34;5017915;28;1575;-46
2021/11/16 03:16:33;;;;;;;;;;;;;;;29.67;22.70;97708.00;5016524;28;1452;-48
2021/11/16 03:18:59;;;;;;;;;;;;;;;29.69;22.58;97706.03;5014549;28;1899;-47
2021/11/16 03:21:24;;;;;;;;;;;;;;;29.74;22.44;97706.47;5016909;28;1803;-45
2021/11/16 03:23:52;;;;;;;;;;;;;;;29.60;22.49;97720.19;5017726;28;1420;-46
2021/11/16 03:26:19;;;;;;;;;;;;;;;29.64;22.70;97722.44;5018144;28;1081;-46
2021/11/16 03:28:50;;;;;;;;;;;;;;;29.69;22.81;97716.69;5017594;28;1773;-48
2021/11/16 03:31:28;;;;;;;;;;;;;;;29.53;22.71;97725.25;5017489;28;1614;-46
2021/11/16 03:33:53;;;;;;;;;;;;;;;29.61;22.67;97725.38;5017060;28;1553;-47
2021/11/16 03:36:19;;;;;;;;;;;;;;;29.58;22.77;97730.13;5013992;28;1490;-47
2021/11/16 03:38:44;;;;;;;;;;;;;;;29.60;22.85;97721.03;5017268;28;1982;-47
2021/11/16 03:41:10;;;;;;;;;;;;;;;29.69;22.81;97725.50;5016305;28;1516;-46
2021/11/16 03:43:36;;;;;;;;;;;;;;;29.84;22.48;97727.69;5017846;28;1413;-46
2021/11/16 03:46:01;;;;;;;;;;;;;;;29.66;22.71;97720.47;5021985;28;1187;-46
2021/11/16 03:48:27;;;;;;;;;;;;;;;29.64;22.49;97725.09;5016253;28;1483;-47
2021/11/16 03:50:52;;;;;;;;;;;;;;;29.52;22.76;97717.41;5017512;28;1392;-47
2021/11/16 03:53:17;;;;;;;;;;;;;;;29.61;22.71;97712.06;5016410;28;1456;-45
2021/11/16 03:55:43;;;;;;;;;;;;;;;29.53;22.67;97714.59;5018669;28;1243;-47
2021/11/16 03:58:09;;;;;;;;;;;;;;;29.49;22.71;97713.19;5018170;28;1918;-46
2021/11/16 04:00:36;;;;;;;;;;;;;;;29.45;22.85;97725.91;5018039;28;1025;-46
2021/11/16 04:03:01;;;;;;;;;;;;;;;29.68;22.40;97720.31;5016677;28;1586;-48
2021/11/16 04:05:26;;;;;;;;;;;;;;;29.53;22.58;97721.75;5009398;28;1650;-47
2021/11/16 04:07:52;;;;;;;;;;;;;;;29.58;22.48;97717.69;5016667;28;1383;-47
2021/11/16 04:10:17;;;;;;;;;;;;;;;29.69;22.54;97706.88;5018401;28;1010;-46
2021/11/16 04:12:45;;;;;;;;;;;;;;;29.68;22.64;97701.72;5017245;28;1432;-45
2021/11/16 04:15:12;;;;;;;;;;;;;;;29.66;22.32;97707.19;5017600;28;1488;-47
2021/11/16 04:17:40;;;;;;;;;;;;;;;29.67;22.71;97719.50;5014456;28;1933;-48
2021/11/16 04:20:06;;;;;;;;;;;;;;;29.68;22.48;97715.00;5016804;28;1535;-47
2021/11/16 04:22:31;;;;;;;;;;;;;;;29.74;22.55;97709.97;5016802;28;1239;-49
2021/11/16 04:24:58;;;;;;;;;;;;;;;29.87;22.25;97704.34;5020376;28;1556;-49
2021/11/16 04:27:23;;;;;;;;;;;;;;;29.85;22.29;97708.09;5018654;28;1303;-48
2021/11/16 04:29:48;;;;;;;;;;;;;;;29.56;22.71;97711.69;5013150;28;1611;-49
2021/11/16 04:32:14;;;;;;;;;;;;;;;29.95;22.12;97707.13;5019511;28;1194;-47
2021/11/16 04:34:39;;;;;;;;;;;;;;;29.78;22.36;97717.63;5014120;28;1445;-48
2021/11/16 04:37:04;;;;;;;;;;;;;;;29.88;22.16;97721.13;5017158;28;1922;-47
2021/11/16 04:39:30;;;;;;;;;;;;;;;29.48;22.77;97730.13;5014410;28;1405;-47
2021/11/16 04:41:55;;;;;;;;;;;;;;;29.66;22.42;97722.28;5017516;28;1136;-48
2021/11/16 04:44:20;;;;;;;;;;;;;;;29.61;22.50;97717.38;5017783;28;1539;-47
2021/11/16 04:46:46;;;;;;;;;;;;;;;29.79;22.24;97708.72;5016979;28;1712;-48
2021/11/16 04:49:29;;;;;;;;;;;;;;;29.90;21.99;97713.84;5014674;28;1533;-48
2021/11/16 04:52:07;;;;;;;;;;;;;;;29.90;22.29;97724.47;5013050;28;1531;-49
2021/11/16 05:02:41;;;;;;;;;;;;;;;29.91;22.10;97708.38;5017599;28;1116;-47
2021/11/16 05:05:09;;;;;;;;;;;;;;;29.90;22.10;97709.34;5006198;28;1542;-49
2021/11/16 05:07:34;;;;;;;;;;;;;;;29.89;22.02;97720.97;5019739;28;1283;-48
2021/11/16 05:09:59;;;;;;;;;;;;;;;29.64;22.72;97722.44;5016171;28;1224;-49
2021/11/16 05:12:26;;;;;;;;;;;;;;;29.87;22.36;97719.47;5014521;28;1654;-46
2021/11/16 05:14:51;;;;;;;;;;;;;;;29.71;22.41;97720.06;5018095;28;1500;-47
2021/11/16 05:17:16;;;;;;;;;;;;;;;29.77;22.29;97724.78;5016960;28;1913;-47
2021/11/16 05:19:41;;;;;;;;;;;;;;;29.97;22.01;97717.59;5010715;28;1777;-47
2021/11/16 05:22:06;;;;;;;;;;;;;;;29.60;22.40;97717.53;5017758;28;1088;-47
2021/11/16 05:24:32;;;;;;;;;;;;;;;29.92;22.42;97722.50;5014182;28;1580;-48
2021/11/16 05:26:57;;;;;;;;;;;;;;;29.87;22.21;97714.13;5017690;28;1302;-48
2021/11/16 05:29:22;;;;;;;;;;;;;;;29.76;22.56;97717.78;5014028;28;1471;-48
2021/11/16 05:31:47;;;;;;;;;;;;;;;29.63;22.57;97709.31;5011557;28;1555;-47
2021/11/16 05:34:13;;;;;;;;;;;;;;;29.82;22.10;97714.56;5014692;28;1464;-48
2021/11/16 05:36:38;;;;;;;;;;;;;;;29.60;22.41;97713.06;5013917;28;2016;-48
2021/11/16 05:39:03;;;;;;;;;;;;;;;29.65;22.46;97708.16;5017988;28;1974;-48
2021/11/16 05:41:29;;;;;;;;;;;;;;;29.83;22.38;97723.38;5014718;28;1905;-47
2021/11/16 05:43:54;;;;;;;;;;;;;;;29.82;22.08;97716.38;5019831;28;1200;-50
2021/11/16 05:46:23;;;;;;;;;;;;;;;29.79;22.17;97714.03;5023210;28;1673;-48
2021/11/16 05:48:51;;;;;;;;;;;;;;;29.93;22.10;97716.19;5019261;28;1476;-47
2021/11/16 05:51:17;;;;;;;;;;;;;;;29.72;22.42;97711.94;5014318;28;1439;-48
2021/11/16 05:53:45;;;;;;;;;;;;;;;29.68;22.39;97715.00;5021458;28;1089;-47
2021/11/16 05:56:10;;;;;;;;;;;;;;;29.87;22.36;97708.81;5020691;28;1168;-47
2021/11/16 05:58:36;;;;;;;;;;;;;;;29.90;22.28;97722.66;5018687;28;1915;-48
2021/11/16 06:01:02;;;;;;;;;;;;;;;29.73;22.64;97721.56;5015560;28;1441;-48
2021/11/16 06:03:27;;;;;;;;;;;;;;;29.94;22.42;97723.19;5018528;28;1389;-50
2021/11/16 06:05:52;;;;;;;;;;;;;;;29.74;22.48;97725.06;5016906;28;1547;-48
2021/11/16 06:08:24;;;;;;;;;;;;;;;29.63;22.40;97720.78;5020014;28;1292;-48
2021/11/16 06:10:50;;;;;;;;;;;;;;;29.45;22.60;97720.59;5019671;28;1559;-50
2021/11/16 06:13:15;;;;;;;;;;;;;;;29.80;22.38;97723.66;5017859;28;1715;-49
2021/11/16 06:15:40;;;;;;;;;;;;;;;29.81;22.23;97728.00;5019563;28;1457;-47
2021/11/16 06:18:05;;;;;;;;;;;;;;;29.82;22.14;97727.03;5021392;28;1918;-47
2021/11/16 06:20:31;;;;;;;;;;;;;;;29.67;22.47;97724.81;5015752;28;1543;-47
2021/11/16 06:22:56;;;;;;;;;;;;;;;29.52;22.70;97726.22;5017169;28;1428;-48
2021/11/16 06:25:22;;;;;;;;;;;;;;;29.81;22.28;97725.34;5020256;28;1171;-48
2021/11/16 06:27:47;;;;;;;;;;;;;;;29.55;22.51;97731.28;5016939;28;1684;-47
2021/11/16 06:30:12;;;;;;;;;;;;;;;29.69;22.72;97732.63;5020190;28;1316;-47
2021/11/16 06:32:38;;;;;;;;;;;;;;;29.84;22.15;97738.34;5018253;28;1595;-46
2021/11/16 06:35:03;;;;;;;;;;;;;;;29.72;22.38;97732.38;5021511;28;1583;-47
2021/11/16 06:37:28;;;;;;;;;;;;;;;29.42;22.90;97736.00;5014748;28;1973;-46
2021/11/16 06:39:54;;;;;;;;;;;;;;;29.80;22.29;97739.63;5019391;28;1220;-46
2021/11/16 06:42:19;;;;;;;;;;;;;;;29.57;22.57;97745.25;5017837;28;1591;-47
2021/11/16 06:44:44;;;;;;;;;;;;;;;29.51;22.63;97747.63;5020902;28;1496;-47
2021/11/16 06:47:13;;;;;;;;;;;;;;;29.88;22.17;97745.06;5018354;28;1429;-47
2021/11/16 06:49:48;;;;;;;;;;;;;;;29.72;22.44;97753.63;5016421;28;1472;-46
2021/11/16 06:52:14;;;;;;;;;;;;;;;29.72;22.24;97754.47;5018891;28;1559;-48
2021/11/16 06:54:39;;;;;;;;;;;;;;;29.62;22.52;97760.75;5021348;28;1298;-46
2021/11/16 06:57:04;;;;;;;;;;;;;;;29.41;22.76;97750.28;5017955;28;1569;-48
2021/11/16 06:59:30;;;;;;;;;;;;;;;29.84;22.18;97751.63;5017960;28;1906;-46
2021/11/16 07:01:55;;;;;;;;;;;;;;;29.73;22.43;97749.97;5018344;28;1603;-48
2021/11/16 07:04:20;;;;;;;;;;;;;;;29.75;22.21;97748.84;5018085;28;1582;-48
2021/11/16 07:06:46;;;;;;;;;;;;;;;29.67;22.69;97739.91;5013513;28;1472;-48
2021/11/16 07:09:13;;;;;;;;;;;;;;;29.63;22.54;97741.19;5020118;28;1225;-46
2021/11/16 07:11:54;;;;;;;;;;;;;;;29.68;22.68;97739.75;5016472;28;1440;-47
2021/11/16 07:14:20;;;;;;;;;;;;;;;29.57;22.47;97745.25;5018432;28;1507;-48
2021/11/16 07:16:54;;;;;;;;;;;;;;;29.82;22.48;97746.47;5017226;28;1400;-47
2021/11/16 07:19:43;;;;;;;;;;;;;;;29.66;22.52;97751.53;5010895;28;1907;-48
2021/11/16 07:22:12;;;;;;;;;;;;;;;29.75;22.23;97764.81;5017883;28;1105;-47
2021/11/16 07:24:57;;;;;;;;;;;;;;;29.82;22.48;97758.91;5019794;28;1230;-48
2021/11/16 07:27:32;;;;;;;;;;;;;;;29.93;22.10;97769.38;5019614;28;1687;-48
2021/11/16 07:29:58;;;;;;;;;;;;;;;29.77;22.25;97771.78;5015229;28;1831;-48
2021/11/16 07:32:26;;;;;;;;;;;;;;;29.81;22.36;97779.34;5017884;28;1650;-47
2021/11/16 07:34:52;;;;;;;;;;;;;;;29.83;22.28;97779.19;5017700;28;1479;-47
2021/11/16 07:37:18;;;;;;;;;;;;;;;29.70;22.78;97777.69;5016517;28;1918;-47
2021/11/16 07:39:44;;;;;;;;;;;;;;;29.85;22.33;97771.91;5014778;28;1389;-48
2021/11/16 07:42:10;;;;;;;;;;;;;;;29.79;22.43;97768.03;5016620;28;1605;-47
2021/11/16 07:44:35;;;;;;;;;;;;;;;29.84;22.36;97775.56;5019620;28;1189;-47
2021/11/16 07:47:00;;;;;;;;;;;;;;;29.75;22.55;97769.28;4997031;28;1381;-46
2021/11/16 07:49:25;;;;;;;;;;;;;;;29.73;22.64;97772.09;5018431;28;1373;-47
2021/11/16 07:51:51;;;;;;;;;;;;;;;29.82;22.19;97773.06;5013567;28;1562;-46
2021/11/16 07:54:20;;;;;;;;;;;;;;;29.82;22.41;97769.56;5014753;28;1514;-46
2021/11/16 07:56:46;;;;;;;;;;;;;;;29.58;22.63;97772.66;5016706;28;1582;-47
2021/11/16 07:59:11;;;;;;;;;;;;;;;29.53;22.87;97781.03;5019517;28;1964;-46
2021/11/16 08:04:09;;;;;;;;;;;;;;;29.83;22.55;97785.34;5012761;28;1531;-47
2021/11/16 08:06:37;;;;;;;;;;;;;;;29.90;22.21;97788.28;5015991;28;1396;-47
2021/11/16 08:09:28;;;;;;;;;;;;;;;29.60;22.49;97783.97;5017770;28;1584;-48
2021/11/16 08:12:14;;;;;;;;;;;;;;;29.83;22.42;97797.81;5014347;28;1416;-46
2021/11/16 08:14:39;;;;;;;;;;;;;;;29.53;22.79;97794.34;5015595;28;1559;-47
2021/11/16 08:17:07;;;;;;;;;;;;;;;29.94;22.03;97794.97;5000017;28;1211;-48
2021/11/16 08:19:34;;;;;;;;;;;;;;;28.41;24.97;97790.13;5013081;28;1954;-49
2021/11/16 08:22:02;;;;;;;;;;;;;;;27.98;24.79;97783.19;5014081;28;1416;-49
2021/11/16 08:24:27;;;;;;;;;;;;;;;27.55;25.47;97786.75;5018567;28;1666;-48
2021/11/16 08:26:53;;;;;;;;;;;;;;;29.01;24.00;97788.41;5016482;28;1223;-48
2021/11/16 08:29:34;;;;;;;;;;;;;;;28.32;24.70;97797.06;5013839;28;1465;-48
2021/11/16 08:32:04;;;;;;;;;;;;;;;28.79;24.51;97786.78;5017352;28;1493;-48
2021/11/16 08:34:30;;;;;;;;;;;;;;;29.19;23.57;97800.03;5016262;28;1416;-49
2021/11/16 08:36:55;;;;;;;;;;;;;;;28.99;23.94;97800.94;5015416;28;1373;-48
2021/11/16 08:39:44;;;;;;;;;;;;;;;29.38;23.30;97799.19;5013453;28;1947;-48
2021/11/16 08:42:10;;;;;;;;;;;;;;;29.05;23.44;97791.63;5016427;28;1306;-47
2021/11/16 08:44:43;;;;;;;;;;;;;;;29.34;23.66;97791.66;5019115;28;1531;-46
2021/11/16 08:47:09;;;;;;;;;;;;;;;29.25;23.42;97784.53;5025105;28;1486;-48
2021/11/16 08:49:34;;;;;;;;;;;;;;;29.50;22.89;97786.66;5007124;28;1693;-48
2021/11/16 08:52:01;;;;;;;;;;;;;;;29.36;22.63;97784.38;5010581;28;1157;-47
2021/11/16 08:54:35;;;;;;;;;;;;;;;29.62;22.46;97782.84;5008929;28;1483;-49
2021/11/16 08:57:00;;;;;;;;;;;;;;;29.38;22.92;97779.75;5007203;28;1330;-48
2021/11/16 08:59:25;;;;;;;;;;;;;;;29.60;22.71;97782.16;5013120;28;1990;-49
2021/11/16 09:01:58;;;;;;;;;;;;;;;29.53;22.70;97783.69;5011394;28;1254;-48
2021/11/16 09:04:28;;;;;;;;;;;;;;;29.48;23.04;97778.78;5007377;28;1583;-49
2021/11/16 09:06:53;;;;;;;;;;;;;;;28.88;23.36;97780.66;5008374;28;1223;-48
2021/11/16 09:09:18;;;;;;;;;;;;;;;29.43;22.70;97785.50;5010333;28;1256;-49
2021/11/16 09:11:53;;;;;;;;;;;;;;;29.40;22.90;97786.63;5010486;28;1168;-48
2021/11/16 09:14:19;;;;;;;;;;;;;;;28.97;23.28;97789.63;5007472;28;1455;-48
2021/11/16 09:16:44;;;;;;;;;;;;;;;28.84;23.72;97794.34;5012189;28;1306;-47
2021/11/16 09:19:21;;;;;;;;;;;;;;;28.95;23.84;97791.59;5010596;28;1960;-48
2021/11/16 09:21:47;;;;;;;;;;;;;;;28.48;24.32;97793.94;5012318;28;1109;-47
2021/11/16 09:24:16;;;;;;;;;;;;;;;28.71;24.33;97793.75;5013660;28;1491;-45
2021/11/16 09:29:17;;;;;;;;;;;;;;;29.16;23.33;97789.69;5013593;28;1369;-45
2021/11/16 09:32:03;;;;;;;;;;;;;;;29.34;23.04;97797.81;5014727;28;1131;-48
2021/11/16 09:34:30;;;;;;;;;;;;;;;29.62;22.86;97793.47;5016316;28;1424;-46
2021/11/16 09:36:59;;;;;;;;;;;;;;;29.38;22.71;97791.22;5011475;28;1127;-44
2021/11/16 09:39:31;;;;;;;;;;;;;;;29.54;22.51;97796.00;5012191;28;1957;-47
2021/11/16 09:41:57;;;;;;;;;;;;;;;29.84;22.31;97789.69;5011004;28;1443;-46
2021/11/16 09:44:24;;;;;;;;;;;;;;;29.61;22.48;97791.81;5016529;28;1228;-44
2021/11/16 09:47:09;;;;;;;;;;;;;;;29.74;22.45;97795.03;5011929;28;1397;-46
2021/11/16 09:49:38;;;;;;;;;;;;;;;29.62;22.42;97796.13;5006477;28;1999;-45
2021/11/16 09:52:05;;;;;;;;;;;;;;;29.51;22.76;97798.97;5027557;28;1069;-47
2021/11/16 09:54:30;;;;;;;;;;;;;;;28.90;23.54;97796.47;5017148;28;1184;-45
2021/11/16 09:57:02;;;;;;;;;;;;;;;28.24;24.64;97802.16;5010699;28;1306;-47
2021/11/16 09:59:27;;;;;;;;;;;;;;;27.97;24.61;97808.03;5009876;28;1949;-45
2021/11/16 10:01:53;;;;;;;;;;;;;;;28.09;24.58;97801.66;5010544;28;1310;-45
2021/11/16 10:04:23;;;;;;;;;;;;;;;28.63;24.16;97802.38;5011338;28;1531;-45
2021/11/16 10:06:48;;;;;;;;;;;;;;;27.65;25.52;97809.84;5007154;28;1416;-46
2021/11/16 10:09:13;;;;;;;;;;;;;;;28.00;24.90;97802.47;5012859;28;1339;-45
2021/11/16 10:11:43;;;;;;;;;;;;;;;28.95;23.71;97802.22;5015187;28;1133;-46
2021/11/16 10:14:12;;;;;;;;;;;;;;;28.93;23.95;97801.53;5013486;28;1545;-45
2021/11/16 10:16:37;;;;;;;;;;;;;;;29.37;23.85;97804.66;5009689;28;1414;-48
2021/11/16 10:19:02;;;;;;;;;;;;;;;29.46;22.99;97803.81;5012230;28;1961;-46
2021/11/16 10:21:29;;;;;;;;;;;;;;;29.56;23.03;97807.34;5013154;28;1388;-44
2021/11/16 10:23:56;;;;;;;;;;;;;;;29.66;22.90;97800.22;5013298;28;1314;-44
2021/11/16 10:26:24;;;;;;;;;;;;;;;29.22;23.45;97806.03;5029244;28;1594;-46
2021/11/16 10:28:49;;;;;;;;;;;;;;;29.74;22.95;97799.50;5012042;28;1355;-47
2021/11/16 10:31:15;;;;;;;;;;;;;;;28.88;23.72;97790.44;5011743;28;1121;-49
2021/11/16 10:33:42;;;;;;;;;;;;;;;28.58;23.94;97794.81;4999440;28;1362;-47
2021/11/16 10:36:11;;;;;;;;;;;;;;;29.66;22.64;97784.25;5015496;28;1329;-48
2021/11/16 10:38:46;;;;;;;;;;;;;;;29.23;23.27;97783.81;5013982;28;1894;-46
2021/11/16 10:41:12;;;;;;;;;;;;;;;29.07;23.36;97787.88;5009767;28;1144;-46
2021/11/16 10:43:58;;;;;;;;;;;;;;;29.22;23.58;97787.44;5014927;28;1336;-45
2021/11/16 10:46:24;;;;;;;;;;;;;;;29.33;25.41;97792.63;5016202;28;1310;-45
2021/11/16 10:48:49;;;;;;;;;;;;;;;29.22;23.62;97787.44;5012816;28;1264;-48
2021/11/16 10:51:16;;;;;;;;;;;;;;;29.83;22.51;97784.53;5010101;28;1466;-45
2021/11/16 10:53:48;;;;;;;;;;;;;;;29.96;22.35;97783.25;5010798;28;1132;-45
2021/11/16 10:56:15;;;;;;;;;;;;;;;29.93;22.62;97782.69;5016725;28;1454;-45
2021/11/16 10:58:40;;;;;;;;;;;;;;;30.17;22.13;97783.06;5012851;28;1934;-47
2021/11/16 11:01:12;;;;;;;;;;;;;;;30.07;22.36;97779.56;5010129;28;1365;-46
2021/11/16 11:03:39;;;;;;;;;;;;;;;30.34;22.21;97770.84;5007309;28;1404;-47
2021/11/16 11:06:05;;;;;;;;;;;;;;;30.35;22.05;97766.38;5014533;28;1471;-49
2021/11/16 11:08:30;;;;;;;;;;;;;;;30.21;22.20;97765.84;5013384;28;1333;-46
2021/11/16 11:10:55;;;;;;;;;;;;;;;29.01;23.63;97768.97;5010850;28;1171;-45
2021/11/16 11:13:21;;;;;;;;;;;;;;;30.20;22.35;97764.16;5011808;28;1161;-45
2021/11/16 11:15:50;;;;;;;;;;;;;;;30.41;21.96;97761.25;5011522;28;1471;-45
2021/11/16 11:18:31;;;;;;;;;;;;;;;30.35;21.90;97761.88;5014466;28;1910;-45
2021/11/16 11:21:04;;;;;;;;;;;;;;;30.03;22.20;97754.25;5026510;28;1348;-45
2021/11/16 11:23:32;;;;;;;;;;;;;;;29.30;23.01;97747.72;5013540;28;1140;-47
2021/11/16 11:26:46;;;;;;;;;;;;;;;29.93;22.37;97748.09;5011090;28;1530;-46
2021/11/16 11:29:44;;;;;;;;;;;;;;;29.86;22.72;97744.34;5010483;28;1448;-48
2021/11/16 11:32:15;;;;;;;;;;;;;;;29.53;22.94;97741.19;5007691;28;1167;-46
2021/11/16 11:34:51;;;;;;;;;;;;;;;29.08;23.71;97748.88;5006516;28;1413;-47
2021/11/16 11:37:20;;;;;;;;;;;;;;;29.22;23.55;97755.56;5012273;28;1261;-46
2021/11/16 11:39:46;;;;;;;;;;;;;;;29.55;22.98;97755.19;5025879;28;1906;-47
2021/11/16 11:42:13;;;;;;;;;;;;;;;30.42;21.86;97741.69;5010464;28;1281;-46
2021/11/16 11:44:43;;;;;;;;;;;;;;;30.52;21.95;97737.13;5011418;28;1495;-45
2021/11/16 11:47:09;;;;;;;;;;;;;;;30.29;22.18;97733.19;5017006;28;1030;-49
2021/11/16 11:49:34;;;;;;;;;;;;;;;29.66;22.97;97739.06;5015672;28;1445;-48
2021/11/16 11:52:00;;;;;;;;;;;;;;;29.05;23.73;97731.38;5007945;28;1066;-47
2021/11/16 11:54:25;;;;;;;;;;;;;;;29.83;23.09;97737.50;5013061;28;1231;-45
2021/11/16 11:56:51;;;;;;;;;;;;;;;30.03;22.43;97725.00;5011021;28;1093;-48
2021/11/16 11:59:18;;;;;;;;;;;;;;;30.38;22.04;97734.13;5013252;28;1906;-46
2021/11/16 12:01:44;;;;;;;;;;;;;;;29.71;22.90;97739.50;5013987;28;1204;-46
2021/11/16 12:04:10;;;;;;;;;;;;;;;30.64;21.80;97739.59;5006530;28;1441;-46
2021/11/16 12:06:35;;;;;;;;;;;;;;;30.61;21.87;97735.41;5026411;28;1111;-46
2021/11/16 12:09:00;;;;;;;;;;;;;;;29.72;22.39;97729.69;5013977;28;1331;-46
2021/11/16 12:11:27;;;;;;;;;;;;;;;29.07;23.65;97725.91;5014383;28;1144;-46
2021/11/16 12:13:53;;;;;;;;;;;;;;;28.98;23.87;97724.09;5005311;28;1416;-47
2021/11/16 12:16:27;;;;;;;;;;;;;;;28.92;23.90;97730.81;5009136;28;1147;-44
2021/11/16 12:19:02;;;;;;;;;;;;;;;29.41;23.34;97723.69;5011814;28;1902;-45
2021/11/16 12:21:27;;;;;;;;;;;;;;;29.46;23.18;97721.44;5014148;28;1580;-47
2021/11/16 12:23:56;;;;;;;;;;;;;;;29.31;23.36;97717.53;5011354;28;1208;-47
2021/11/16 12:26:21;;;;;;;;;;;;;;;28.81;23.92;97709.66;5010440;28;1468;-46
2021/11/16 12:28:46;;;;;;;;;;;;;;;29.29;23.59;97712.38;5015627;28;1209;-48
2021/11/16 12:31:21;;;;;;;;;;;;;;;29.36;23.47;97720.63;5014629;28;1285;-48
2021/11/16 12:33:47;;;;;;;;;;;;;;;28.82;23.83;97721.94;4995922;28;1393;-47
2021/11/16 12:36:16;;;;;;;;;;;;;;;28.45;24.41;97719.94;5010615;28;1411;-49
2021/11/16 12:38:43;;;;;;;;;;;;;;;28.97;23.94;97719.78;5014292;28;1926;-46
2021/11/16 12:41:27;;;;;;;;;;;;;;;30.39;21.92;97714.50;5018704;28;1145;-47
2021/11/16 12:43:52;;;;;;;;;;;;;;;30.30;22.32;97711.75;5014478;28;1514;-47
2021/11/16 12:46:18;;;;;;;;;;;;;;;30.25;22.19;97711.34;5017685;28;1144;-47
2021/11/16 12:48:51;;;;;;;;;;;;;;;30.54;21.89;97718.34;5016527;28;1419;-47
2021/11/16 12:51:17;;;;;;;;;;;;;;;30.39;21.97;97706.53;5019522;28;1471;-46
2021/11/16 12:53:49;;;;;;;;;;;;;;;30.30;22.13;97710.91;5018046;28;1800;-46
2021/11/16 12:56:15;;;;;;;;;;;;;;;30.32;22.01;97705.44;5017245;28;1129;-47
2021/11/16 12:58:58;;;;;;;;;;;;;;;30.43;21.79;97707.94;5016984;28;1918;-47
2021/11/16 13:01:34;;;;;;;;;;;;;;;30.21;22.33;97706.47;5021767;28;2030;-45
2021/11/16 13:04:03;;;;;;;;;;;;;;;30.24;22.30;97699.03;5013784;28;1614;-46
2021/11/16 13:06:28;;;;;;;;;;;;;;;30.45;21.92;97705.94;5018986;28;1397;-46
2021/11/16 13:08:53;;;;;;;;;;;;;;;30.27;22.19;97695.25;5019289;28;1217;-46
2021/11/16 13:11:39;;;;;;;;;;;;;;;30.16;22.28;97693.59;5019135;28;1885;-47
2021/11/16 13:14:04;;;;;;;;;;;;;;;30.32;22.21;97692.13;5019001;28;1527;-46